createdAt,value
2023-05-19T00:00:31.175Z,11.32
2023-05-19T00:03:38.501Z,11.32
2023-05-19T00:06:19.484Z,11.33
2023-05-19T00:09:25.269Z,11.35
2023-05-19T00:12:06.561Z,11.36
2023-05-19T00:15:20.300Z,11.37
2023-05-19T00:18:02.346Z,11.37
2023-05-19T00:21:12.355Z,11.38
2023-05-19T00:24:19.132Z,11.38
2023-05-19T00:27:38.427Z,11.37
2023-05-19T00:30:33.941Z,11.39
2023-05-19T00:33:39.996Z,11.39
2023-05-19T00:36:41.344Z,11.40
2023-05-19T00:39:47.915Z,11.39
2023-05-19T00:43:19.383Z,11.41
2023-05-19T00:46:15.450Z,11.42
2023-05-19T00:49:03.436Z,11.42
2023-05-19T00:51:59.612Z,11.40
2023-05-19T00:55:10.127Z,11.38
2023-05-19T00:58:15.685Z,11.36
2023-05-19T01:01:27.080Z,11.33
2023-05-19T01:04:29.962Z,11.32
2023-05-19T01:07:32.546Z,11.33
2023-05-19T01:10:34.544Z,11.32
2023-05-19T01:13:45.107Z,11.29
2023-05-19T01:17:18.983Z,11.28
2023-05-19T01:21:05.096Z,11.28
2023-05-19T01:24:30.304Z,11.28
2023-05-19T01:27:51.833Z,11.27
2023-05-19T01:31:13.753Z,11.29
2023-05-19T01:34:36.404Z,11.30
2023-05-19T01:37:24.856Z,11.31
2023-05-19T01:40:25.297Z,11.31
2023-05-19T01:43:01.855Z,11.32
2023-05-19T01:45:49.739Z,11.33
2023-05-19T01:48:41.766Z,11.33
2023-05-19T01:51:41.962Z,11.32
2023-05-19T01:54:48.909Z,11.33
2023-05-19T01:57:51.944Z,11.32
2023-05-19T02:02:02.002Z,11.31
2023-05-19T02:05:10.739Z,11.28
2023-05-19T02:08:34.322Z,11.27
2023-05-19T02:11:57.370Z,11.28
2023-05-19T02:15:32.947Z,11.27
2023-05-19T02:18:22.339Z,11.26
2023-05-19T02:22:03.672Z,11.26
2023-05-19T02:24:56.932Z,11.26
2023-05-19T02:28:15.179Z,11.27
2023-05-19T02:31:28.445Z,11.28
2023-05-19T02:34:29.785Z,11.27
2023-05-19T02:37:15.760Z,11.26
2023-05-19T02:40:18.460Z,11.24
2023-05-19T02:42:47.522Z,11.22
2023-05-19T02:45:29.012Z,11.19
2023-05-19T02:48:11.041Z,11.18
2023-05-19T02:51:18.097Z,11.16
2023-05-19T02:54:17.808Z,11.15
2023-05-19T02:57:27.898Z,11.13
2023-05-19T03:00:57.782Z,11.11
2023-05-19T03:04:02.322Z,11.09
2023-05-19T03:06:49.541Z,11.07
2023-05-19T03:09:49.014Z,11.06
2023-05-19T03:13:00.183Z,11.04
2023-05-19T03:16:02.428Z,11.03
2023-05-19T03:19:01.776Z,11.02
2023-05-19T03:22:06.724Z,11.00
2023-05-19T03:25:33.576Z,11.01
2023-05-19T03:28:40.806Z,11.04
2023-05-19T03:32:07.921Z,11.07
2023-05-19T03:35:13.567Z,11.11
2023-05-19T03:38:12.858Z,11.17
2023-05-19T03:41:01.927Z,11.21
2023-05-19T03:43:42.702Z,11.23
2023-05-19T03:46:41.177Z,11.25
2023-05-19T03:49:50.506Z,11.30
2023-05-19T03:53:05.899Z,11.35
2023-05-19T03:55:52.507Z,11.38
2023-05-19T03:58:50.268Z,11.43
2023-05-19T04:01:49.065Z,11.45
2023-05-19T04:04:48.312Z,11.49
2023-05-19T04:07:51.478Z,11.53
2023-05-19T04:10:35.632Z,11.58
2023-05-19T04:13:12.799Z,11.63
2023-05-19T04:16:23.447Z,11.69
2023-05-19T04:19:07.544Z,11.74
2023-05-19T04:22:07.869Z,11.77
2023-05-19T04:24:37.342Z,11.82
2023-05-19T04:27:16.797Z,11.86
2023-05-19T04:30:22.806Z,11.91
2023-05-19T04:33:21.442Z,12.01
2023-05-19T04:36:19.905Z,12.09
2023-05-19T04:38:49.219Z,12.19
2023-05-19T04:41:30.214Z,12.27
2023-05-19T04:44:10.040Z,12.39
2023-05-19T04:46:43.090Z,12.53
2023-05-19T04:49:19.717Z,12.65
2023-05-19T04:52:23.014Z,12.77
2023-05-19T04:55:14.616Z,12.90
2023-05-19T04:58:15.573Z,13.01
2023-05-19T05:00:49.783Z,13.09
2023-05-19T05:03:34.606Z,13.13
2023-05-19T05:06:29.024Z,13.17
2023-05-19T05:09:05.311Z,13.20
2023-05-19T05:11:58.404Z,13.21
2023-05-19T05:14:42.760Z,13.22
2023-05-19T05:17:41.280Z,13.21
2023-05-19T05:20:31.634Z,13.21
2023-05-19T05:23:30.418Z,13.22
2023-05-19T05:26:23.531Z,13.24
2023-05-19T05:29:03.394Z,13.26
2023-05-19T05:31:55.677Z,13.29
2023-05-19T05:34:41.298Z,13.28
2023-05-19T05:37:16.042Z,13.27
2023-05-19T05:40:45.775Z,13.28
2023-05-19T05:43:20.272Z,13.33
2023-05-19T05:46:30.293Z,13.33
2023-05-19T05:49:10.445Z,13.34
2023-05-19T05:52:05.693Z,13.35
2023-05-19T05:55:06.411Z,13.35
2023-05-19T05:57:54.267Z,13.29
2023-05-19T06:00:45.682Z,13.32
2023-05-19T06:03:37.035Z,13.32
2023-05-19T06:06:38.602Z,13.31
2023-05-19T06:09:30.216Z,13.29
2023-05-19T06:12:19.093Z,13.28
2023-05-19T06:15:16.905Z,13.27
2023-05-19T06:18:11.848Z,13.27
2023-05-19T06:20:45.632Z,13.25
2023-05-19T06:23:29.355Z,13.26
2023-05-19T06:26:38.908Z,13.28
2023-05-19T06:29:40.092Z,13.30
2023-05-19T06:32:19.401Z,13.33
2023-05-19T06:34:59.558Z,13.38
2023-05-19T06:37:31.824Z,13.43
2023-05-19T06:40:10.556Z,13.48
2023-05-19T06:42:42.513Z,13.52
2023-05-19T06:45:55.207Z,13.58
2023-05-19T06:48:27.498Z,13.66
2023-05-19T06:51:04.867Z,13.71
2023-05-19T06:53:45.340Z,13.75
2023-05-19T06:56:52.421Z,13.78
2023-05-19T06:59:41.283Z,13.81
2023-05-19T07:02:26.189Z,13.82
2023-05-19T07:05:27.403Z,13.83
2023-05-19T07:08:07.036Z,13.83
2023-05-19T07:10:50.305Z,13.85
2023-05-19T07:13:44.551Z,13.86
2023-05-19T07:16:26.742Z,13.84
2023-05-19T07:19:15.686Z,13.83
2023-05-19T07:22:03.569Z,13.85
2023-05-19T07:24:48.416Z,13.85
2023-05-19T07:27:34.827Z,13.83
2023-05-19T07:30:11.959Z,13.81
2023-05-19T07:33:08.685Z,13.80
2023-05-19T07:35:46.236Z,13.78
2023-05-19T07:38:21.807Z,13.73
2023-05-19T07:40:56.308Z,13.80
2023-05-19T07:43:32.708Z,13.82
2023-05-19T07:46:22.773Z,13.82
2023-05-19T07:49:25.432Z,13.82
2023-05-19T07:52:08.127Z,13.82
2023-05-19T07:54:46.595Z,13.80
2023-05-19T07:57:35.629Z,13.77
2023-05-19T08:00:17.950Z,13.78
2023-05-19T08:02:55.002Z,13.80
2023-05-19T08:05:33.031Z,13.82
2023-05-19T08:08:02.982Z,13.84
2023-05-19T08:10:41.152Z,13.87
2023-05-19T08:13:49.831Z,13.88
2023-05-19T08:16:22.024Z,13.91
2023-05-19T08:19:11.125Z,13.95
2023-05-19T08:22:01.573Z,14.00
2023-05-19T08:24:58.055Z,14.02
2023-05-19T08:27:27.032Z,14.07
2023-05-19T08:30:01.986Z,14.09
2023-05-19T08:32:48.841Z,14.10
2023-05-19T08:35:32.832Z,14.12
2023-05-19T08:38:07.464Z,14.12
2023-05-19T08:40:42.650Z,14.15
2023-05-19T08:43:24.585Z,14.18
2023-05-19T08:46:02.910Z,14.23
2023-05-19T08:48:44.816Z,14.30
2023-05-19T08:51:39.602Z,14.36
2023-05-19T08:54:20.226Z,14.42
2023-05-19T08:56:58.977Z,14.49
2023-05-19T08:59:35.339Z,14.54
2023-05-19T09:02:14.243Z,14.59
2023-05-19T09:04:51.513Z,14.64
2023-05-19T09:07:25.959Z,14.69
2023-05-19T09:10:01.241Z,14.71
2023-05-19T09:12:51.440Z,14.76
2023-05-19T09:15:31.111Z,14.83
2023-05-19T09:18:21.236Z,14.88
2023-05-19T09:20:49.946Z,14.92
2023-05-19T09:23:28.899Z,14.96
2023-05-19T09:26:08.072Z,15.02
2023-05-19T09:29:04.122Z,15.06
2023-05-19T09:31:35.385Z,15.12
2023-05-19T09:34:22.608Z,15.14
2023-05-19T09:36:53.936Z,15.13
2023-05-19T09:39:26.351Z,15.15
2023-05-19T09:42:06.969Z,15.20
2023-05-19T09:44:45.696Z,15.31
2023-05-19T09:47:16.836Z,15.39
2023-05-19T09:49:54.129Z,15.48
2023-05-19T09:52:26.255Z,15.55
2023-05-19T09:55:05.113Z,15.65
2023-05-19T09:57:38.008Z,15.70
2023-05-19T10:00:18.463Z,15.84
2023-05-19T10:02:48.837Z,15.99
2023-05-19T10:05:23.899Z,16.11
2023-05-19T10:07:57.215Z,16.23
2023-05-19T10:10:28.031Z,16.33
2023-05-19T10:12:59.229Z,16.43
2023-05-19T10:15:28.394Z,16.52
2023-05-19T10:17:57.303Z,16.56
2023-05-19T10:20:27.837Z,16.58
2023-05-19T10:23:05.512Z,16.57
2023-05-19T10:25:44.081Z,16.57
2023-05-19T10:28:28.422Z,16.53
2023-05-19T10:31:04.761Z,16.48
2023-05-19T10:34:11.012Z,16.46
2023-05-19T10:36:49.118Z,16.47
2023-05-19T10:39:33.277Z,16.40
2023-05-19T10:42:15.905Z,16.40
2023-05-19T10:45:28.014Z,16.37
2023-05-19T10:47:59.886Z,16.35
2023-05-19T10:50:39.296Z,16.38
2023-05-19T10:53:22.733Z,16.45
2023-05-19T10:56:05.114Z,16.50
2023-05-19T10:58:46.008Z,16.54
2023-05-19T11:01:27.505Z,16.59
2023-05-19T11:04:12.414Z,16.65
2023-05-19T11:07:03.928Z,16.71
2023-05-19T11:09:41.472Z,16.76
2023-05-19T11:12:11.272Z,16.74
2023-05-19T11:14:41.554Z,16.74
2023-05-19T11:17:15.468Z,16.71
2023-05-19T11:19:55.497Z,16.63
2023-05-19T11:22:27.638Z,16.54
2023-05-19T11:24:57.156Z,16.45
2023-05-19T11:27:38.636Z,16.35
2023-05-19T11:30:15.013Z,16.28
2023-05-19T11:32:47.752Z,16.23
2023-05-19T11:35:19.640Z,16.16
2023-05-19T11:37:52.716Z,16.08
2023-05-19T11:40:22.854Z,16.01
2023-05-19T11:42:52.624Z,15.98
2023-05-19T11:45:28.925Z,15.99
2023-05-19T11:48:01.986Z,16.03
2023-05-19T11:50:33.082Z,16.08
2023-05-19T11:53:02.130Z,16.11
2023-05-19T11:55:34.846Z,16.14
2023-05-19T11:58:05.754Z,16.13
2023-05-19T12:00:41.143Z,16.15
2023-05-19T12:03:11.011Z,16.21
2023-05-19T12:05:48.782Z,16.26
2023-05-19T12:08:19.278Z,16.30
2023-05-19T12:10:52.484Z,16.35
2023-05-19T12:13:23.480Z,16.36
2023-05-19T12:15:53.640Z,16.36
2023-05-19T12:18:22.927Z,16.38
2023-05-19T12:20:55.433Z,16.41
2023-05-19T12:23:25.826Z,16.44
2023-05-19T12:25:56.021Z,16.46
2023-05-19T12:28:25.566Z,16.46
2023-05-19T12:30:59.013Z,16.47
2023-05-19T12:33:29.647Z,16.38
2023-05-19T12:35:58.451Z,16.43
2023-05-19T12:38:29.785Z,16.41
2023-05-19T12:41:01.757Z,16.40
2023-05-19T12:43:31.052Z,16.40
2023-05-19T12:46:12.752Z,16.33
2023-05-19T12:48:47.018Z,16.30
2023-05-19T12:51:26.721Z,16.26
2023-05-19T12:53:57.807Z,16.23
2023-05-19T12:56:28.718Z,16.19
2023-05-19T12:58:57.376Z,16.18
2023-05-19T13:01:30.994Z,16.15
2023-05-19T13:04:04.693Z,16.10
2023-05-19T13:06:50.063Z,16.05
2023-05-19T13:09:26.029Z,16.00
2023-05-19T13:11:59.110Z,15.99
2023-05-19T13:14:38.852Z,16.00
2023-05-19T13:17:14.075Z,15.97
2023-05-19T13:19:48.963Z,15.96
2023-05-19T13:22:26.509Z,15.94
2023-05-19T13:25:00.003Z,15.88
2023-05-19T13:27:41.082Z,15.82
2023-05-19T13:30:16.151Z,15.75
2023-05-19T13:32:48.832Z,15.69
2023-05-19T13:35:29.774Z,15.66
2023-05-19T13:38:04.424Z,15.65
2023-05-19T13:40:35.747Z,15.65
2023-05-19T13:43:06.229Z,15.64
2023-05-19T13:45:46.646Z,15.60
2023-05-19T13:48:16.201Z,15.59
2023-05-19T13:50:56.087Z,15.57
2023-05-19T13:53:26.821Z,15.53
2023-05-19T13:56:00.971Z,15.50
2023-05-19T13:58:37.184Z,15.49
2023-05-19T14:01:13.712Z,15.50
2023-05-19T14:03:49.131Z,15.50
2023-05-19T14:06:29.078Z,15.52
2023-05-19T14:09:09.734Z,15.57
2023-05-19T14:11:39.653Z,15.66
2023-05-19T14:14:09.420Z,15.73
2023-05-19T14:16:55.144Z,15.84
2023-05-19T14:19:30.586Z,15.97
2023-05-19T14:21:59.474Z,16.07
2023-05-19T14:24:33.507Z,16.12
2023-05-19T14:27:02.471Z,16.18
2023-05-19T14:29:37.629Z,16.25
2023-05-19T14:32:18.306Z,16.30
2023-05-19T14:34:55.056Z,16.35
2023-05-19T14:37:35.446Z,16.40
2023-05-19T14:40:08.527Z,16.44
2023-05-19T14:42:43.275Z,16.48
2023-05-19T14:45:15.546Z,16.52
2023-05-19T14:47:51.945Z,16.59
2023-05-19T14:50:31.655Z,16.69
2023-05-19T14:53:02.945Z,16.79
2023-05-19T14:55:32.475Z,16.86
2023-05-19T14:58:01.374Z,16.95
2023-05-19T15:00:30.714Z,16.99
2023-05-19T15:03:01.725Z,17.00
2023-05-19T15:05:34.090Z,17.02
2023-05-19T15:08:06.096Z,17.02
2023-05-19T15:10:35.016Z,17.00
2023-05-19T15:13:04.962Z,17.02
2023-05-19T15:15:33.760Z,17.06
2023-05-19T15:18:03.300Z,17.06
2023-05-19T15:20:33.188Z,17.05
2023-05-19T15:23:06.361Z,17.05
2023-05-19T15:25:36.450Z,17.07
2023-05-19T15:28:08.870Z,17.11
2023-05-19T15:30:38.658Z,17.09
2023-05-19T15:33:08.553Z,17.04
2023-05-19T15:35:38.470Z,16.96
2023-05-19T15:38:08.096Z,16.93
2023-05-19T15:40:38.174Z,16.92
2023-05-19T15:43:07.323Z,16.93
2023-05-19T15:45:36.097Z,16.95
2023-05-19T15:48:06.655Z,16.96
2023-05-19T15:50:36.937Z,16.93
2023-05-19T15:53:08.103Z,16.89
2023-05-19T15:55:37.909Z,16.83
2023-05-19T15:58:09.155Z,16.80
2023-05-19T16:00:38.051Z,16.77
2023-05-19T16:03:09.870Z,16.71
2023-05-19T16:05:47.541Z,16.65
2023-05-19T16:08:21.745Z,16.65
2023-05-19T16:10:52.150Z,16.63
2023-05-19T16:13:21.771Z,16.60
2023-05-19T16:15:53.211Z,16.58
2023-05-19T16:18:25.495Z,16.52
2023-05-19T16:20:57.798Z,16.54
2023-05-19T16:23:31.170Z,16.51
2023-05-19T16:26:02.448Z,16.46
2023-05-19T16:28:33.333Z,16.44
2023-05-19T16:31:03.260Z,16.44
2023-05-19T16:33:36.407Z,16.44
2023-05-19T16:36:08.866Z,16.43
2023-05-19T16:38:43.146Z,16.39
2023-05-19T16:41:22.878Z,16.34
2023-05-19T16:43:57.103Z,16.30
2023-05-19T16:46:31.977Z,16.25
2023-05-19T16:49:05.641Z,16.18
2023-05-19T16:51:39.053Z,16.13
2023-05-19T16:54:10.578Z,16.10
2023-05-19T16:56:41.682Z,16.07
2023-05-19T16:59:11.632Z,16.03
2023-05-19T17:01:41.822Z,16.00
2023-05-19T17:04:11.158Z,15.98
2023-05-19T17:06:44.049Z,15.96
2023-05-19T17:09:17.037Z,15.94
2023-05-19T17:11:48.901Z,15.93
2023-05-19T17:14:22.756Z,15.92
2023-05-19T17:16:55.935Z,15.92
2023-05-19T17:19:28.408Z,15.92
2023-05-19T17:22:00.335Z,15.90
2023-05-19T17:24:34.333Z,15.90
2023-05-19T17:27:08.478Z,15.89
2023-05-19T17:29:44.653Z,15.89
2023-05-19T17:32:17.911Z,15.88
2023-05-19T17:34:52.773Z,15.87
2023-05-19T17:37:29.599Z,15.86
2023-05-19T17:40:02.166Z,15.87
2023-05-19T17:42:32.836Z,15.86
2023-05-19T17:45:07.846Z,15.85
2023-05-19T17:47:40.350Z,15.84
2023-05-19T17:50:11.096Z,15.80
2023-05-19T17:52:42.162Z,15.77
2023-05-19T17:55:14.325Z,15.75
2023-05-19T17:57:46.701Z,15.72
2023-05-19T18:00:20.033Z,15.70
2023-05-19T18:02:51.061Z,15.69
2023-05-19T18:05:28.037Z,15.66
2023-05-19T18:08:02.424Z,15.64
2023-05-19T18:10:37.508Z,15.62
2023-05-19T18:13:10.847Z,15.60
2023-05-19T18:15:41.660Z,15.57
2023-05-19T18:18:19.455Z,15.56
2023-05-19T18:20:53.138Z,15.52
2023-05-19T18:23:27.443Z,15.49
2023-05-19T18:25:58.330Z,15.46
2023-05-19T18:28:30.185Z,15.42
2023-05-19T18:31:05.931Z,15.39
2023-05-19T18:33:39.961Z,15.29
2023-05-19T18:36:12.902Z,15.32
2023-05-19T18:38:42.419Z,15.30
2023-05-19T18:41:12.161Z,15.28
2023-05-19T18:43:41.771Z,15.26
2023-05-19T18:46:14.069Z,15.24
2023-05-19T18:48:44.383Z,15.22
2023-05-19T18:51:19.027Z,15.21
2023-05-19T19:20:53.892Z,14.93
2023-05-19T19:23:31.663Z,14.91
2023-05-19T19:26:09.476Z,14.90
2023-05-19T19:28:49.101Z,14.91
2023-05-19T19:31:20.369Z,14.92
2023-05-19T19:34:05.010Z,14.93
2023-05-19T19:36:42.627Z,14.93
2023-05-19T19:39:17.213Z,14.92
2023-05-19T19:41:46.527Z,14.90
2023-05-19T19:44:15.671Z,14.89
2023-05-19T19:47:00.613Z,14.87
2023-05-19T19:49:33.064Z,14.86
2023-05-19T19:52:07.049Z,14.84
2023-05-19T19:54:39.666Z,14.83
2023-05-19T19:57:11.201Z,14.82
2023-05-19T19:59:44.837Z,14.81
2023-05-19T20:02:18.292Z,14.80
2023-05-19T20:04:48.465Z,14.78
2023-05-19T20:07:29.875Z,14.77
2023-05-19T20:10:02.413Z,14.78
2023-05-19T20:12:31.911Z,14.79
2023-05-19T20:15:05.601Z,14.80
2023-05-19T20:17:35.281Z,14.80
2023-05-19T20:20:10.774Z,14.80
2023-05-19T20:22:47.005Z,14.80
2023-05-19T20:25:30.873Z,14.78
2023-05-19T20:28:03.484Z,14.77
2023-05-19T20:30:37.391Z,14.75
2023-05-19T20:33:08.655Z,14.73
2023-05-19T20:35:41.959Z,14.70
2023-05-19T20:38:21.154Z,14.66
2023-05-19T20:40:55.927Z,14.64
2023-05-19T20:43:33.278Z,14.61
2023-05-19T20:46:15.538Z,14.58
2023-05-19T20:48:51.572Z,14.55
2023-05-19T20:51:24.264Z,14.55
2023-05-19T20:54:01.768Z,14.54
2023-05-19T20:56:32.850Z,14.53
2023-05-19T20:59:04.974Z,14.50
2023-05-19T21:01:34.619Z,14.48
2023-05-19T21:04:12.424Z,14.45
2023-05-19T21:06:47.209Z,14.42
2023-05-19T21:09:20.687Z,14.40
2023-05-19T21:11:55.436Z,14.38
2023-05-19T21:14:28.627Z,14.36
2023-05-19T21:16:58.290Z,14.35
2023-05-19T21:19:31.531Z,14.33
2023-05-19T21:22:01.111Z,14.30
2023-05-19T21:24:31.362Z,14.29
2023-05-19T21:27:03.460Z,14.27
2023-05-19T21:29:34.211Z,14.26
2023-05-19T21:32:06.735Z,14.25
2023-05-19T21:34:36.649Z,14.23
2023-05-19T21:37:23.124Z,14.22
2023-05-19T21:39:55.723Z,14.22
2023-05-19T21:42:30.757Z,14.20
2023-05-19T21:45:00.241Z,14.18
2023-05-19T21:47:32.649Z,14.17
2023-05-19T21:50:05.427Z,14.16
2023-05-19T21:52:37.447Z,14.16
2023-05-19T21:55:11.188Z,14.16
2023-05-19T21:58:03.432Z,14.16
2023-05-19T22:00:36.954Z,14.16
2023-05-19T22:03:05.805Z,14.15
2023-05-19T22:05:38.503Z,14.16
2023-05-19T22:08:09.538Z,14.13
2023-05-19T22:10:58.713Z,14.13
2023-05-19T22:13:41.303Z,14.12
2023-05-19T22:16:10.368Z,14.11
2023-05-19T22:18:49.576Z,14.12
2023-05-19T22:21:21.916Z,14.12
2023-05-19T22:24:10.497Z,14.13
2023-05-19T22:26:55.260Z,14.12
2023-05-19T22:29:30.372Z,14.13
2023-05-19T22:32:18.765Z,14.13
2023-05-19T22:35:10.433Z,14.11
2023-05-19T22:37:48.945Z,14.13
2023-05-19T22:40:41.197Z,14.13
2023-05-19T22:43:34.665Z,14.14
2023-05-19T22:46:09.616Z,14.13
2023-05-19T22:48:57.206Z,14.12
2023-05-19T22:51:32.363Z,14.10
2023-05-19T22:54:29.404Z,14.09
2023-05-19T22:57:32.185Z,14.10
2023-05-19T23:00:22.384Z,14.09
2023-05-19T23:02:54.672Z,14.09
2023-05-19T23:05:35.307Z,14.09
2023-05-19T23:08:23.479Z,14.08
2023-05-19T23:11:23.038Z,14.07
2023-05-19T23:13:57.319Z,14.08
2023-05-19T23:16:34.608Z,14.08
2023-05-19T23:19:48.691Z,14.07
2023-05-19T23:23:00.748Z,14.04
2023-05-19T23:25:33.405Z,14.03
2023-05-19T23:28:11.281Z,14.02
2023-05-19T23:31:09.192Z,14.02
2023-05-19T23:33:51.485Z,14.03
2023-05-19T23:36:23.261Z,14.02
2023-05-19T23:38:54.817Z,14.01
2023-05-19T23:41:35.065Z,14.01
2023-05-19T23:44:21.773Z,13.99
2023-05-19T23:47:02.920Z,13.99
2023-05-19T23:49:59.813Z,13.99
2023-05-19T23:52:33.814Z,13.98
2023-05-19T23:55:17.487Z,13.97
2023-05-19T23:58:02.210Z,13.99
